Time;durP1;ratioP1;P1;durP2;ratioP2;P2;SDS_P1;SDS_P2;PMS_P1;PMS_P2;Temp;Humidity;BMP_temperature;BMP_pressure;BME280_temperature;BME280_humidity;BME280_pressure;Samples;Min_cycle;Max_cycle;Signal;HPM_P1;HPM_P2
2021/09/21 00:00:30;;;;;;;3.70;2.40;;;;;;;10.11;100.00;101580.84;5131386;28;20200;-72
2021/09/21 00:02:55;;;;;;;2.50;2.20;;;;;;;10.10;100.00;101584.66;5131245;28;20677;-72
2021/09/21 00:05:21;;;;;;;2.17;1.97;;;;;;;10.03;100.00;101575.16;5130998;28;20191;-72
2021/09/21 00:07:46;;;;;;;3.17;2.73;;;;;;;9.99;100.00;101572.19;5131013;28;20264;-72
2021/09/21 00:10:12;;;;;;;3.17;2.33;;;;;;;9.95;100.00;101554.72;5130654;28;20441;-72
2021/09/21 00:12:38;;;;;;;2.60;2.40;;;;;;;9.91;100.00;101563.75;5130791;28;20179;-72
2021/09/21 00:15:08;;;;;;;4.20;2.40;;;;;;;9.93;100.00;101573.28;5131201;27;20228;-72
2021/09/21 00:17:34;;;;;;;3.37;2.50;;;;;;;9.96;100.00;101580.09;5138178;27;20183;-71
2021/09/21 00:20:00;;;;;;;5.07;3.13;;;;;;;9.97;100.00;101579.00;5139960;28;20172;-71
2021/09/21 00:22:26;;;;;;;3.33;2.40;;;;;;;10.03;100.00;101583.34;5131836;28;20204;-71
2021/09/21 00:24:51;;;;;;;4.17;2.10;;;;;;;10.07;100.00;101590.69;5131092;27;20231;-72
2021/09/21 00:27:17;;;;;;;2.73;2.33;;;;;;;10.10;100.00;101592.03;5131120;28;20206;-72
2021/09/21 00:29:42;;;;;;;4.30;1.80;;;;;;;10.14;100.00;101590.41;5131336;27;20620;-72
2021/09/21 00:32:14;;;;;;;3.17;2.60;;;;;;;10.14;100.00;101593.13;5132477;27;20192;-72
2021/09/21 00:34:39;;;;;;;2.13;1.93;;;;;;;10.13;100.00;101594.25;5131724;27;20606;-72
2021/09/21 00:37:06;;;;;;;2.63;2.43;;;;;;;10.20;100.00;101602.94;5134795;27;20177;-72
2021/09/21 00:39:31;;;;;;;2.90;2.60;;;;;;;10.21;100.00;101596.41;5134715;27;20236;-72
2021/09/21 00:41:57;;;;;;;4.33;2.30;;;;;;;10.24;100.00;101600.47;5134601;27;20176;-72
2021/09/21 00:44:23;;;;;;;2.20;1.97;;;;;;;10.24;100.00;101598.56;5133044;27;20203;-72
2021/09/21 00:46:48;;;;;;;2.40;2.20;;;;;;;10.25;100.00;101607.56;5132868;27;20172;-72
2021/09/21 00:49:15;;;;;;;2.53;2.33;;;;;;;10.21;100.00;101610.06;5134562;27;20215;-73
2021/09/21 00:51:41;;;;;;;4.17;2.87;;;;;;;10.21;100.00;101611.94;5134205;27;20279;-72
2021/09/21 00:54:07;;;;;;;2.67;2.47;;;;;;;10.21;100.00;101623.72;5134113;27;20190;-72
2021/09/21 00:56:32;;;;;;;2.87;2.43;;;;;;;10.22;100.00;101619.06;5134561;27;20164;-72
2021/09/21 00:58:58;;;;;;;4.90;3.07;;;;;;;10.22;100.00;101613.59;5131932;27;20208;-71
2021/09/21 01:01:23;;;;;;;2.60;2.40;;;;;;;10.24;100.00;101617.69;5131417;27;20216;-72
2021/09/21 01:03:49;;;;;;;3.73;2.37;;;;;;;10.26;100.00;101620.94;5134055;27;20575;-72
2021/09/21 01:06:15;;;;;;;2.50;2.30;;;;;;;10.29;100.00;101630.53;5128780;27;20185;-72
2021/09/21 01:08:41;;;;;;;3.97;2.83;;;;;;;10.32;100.00;101632.69;5126981;27;20176;-71
2021/09/21 01:11:14;;;;;;;3.33;3.03;;;;;;;10.34;100.00;101614.91;5127199;27;20180;-72
2021/09/21 01:13:39;;;;;;;2.47;2.27;;;;;;;10.36;100.00;101622.81;5130553;27;20232;-72
2021/09/21 01:16:05;;;;;;;5.13;3.37;;;;;;;10.36;100.00;101604.53;5134114;27;20181;-72
2021/09/21 01:18:31;;;;;;;3.00;2.57;;;;;;;10.39;100.00;101598.50;5131574;27;20180;-72
2021/09/21 01:21:08;;;;;;;3.67;3.30;;;;;;;10.39;100.00;101600.41;5132605;27;20670;-72
2021/09/21 01:23:45;;;;;;;3.20;2.67;;;;;;;10.36;100.00;101595.50;5128917;27;20212;-71
2021/09/21 01:26:10;;;;;;;2.77;2.50;;;;;;;10.36;100.00;101590.03;5131396;27;20643;-72
2021/09/21 01:28:35;;;;;;;2.97;2.70;;;;;;;10.35;100.00;101593.88;5133753;27;20192;-72
2021/09/21 01:31:01;;;;;;;2.13;1.93;;;;;;;10.36;100.00;101595.50;5132015;27;20187;-72
2021/09/21 01:33:26;;;;;;;2.50;2.30;;;;;;;10.31;100.00;101592.81;5133512;27;20208;-72
2021/09/21 01:35:52;;;;;;;2.70;2.50;;;;;;;10.28;100.00;101596.94;5130497;27;20219;-72
2021/09/21 01:38:17;;;;;;;3.23;2.63;;;;;;;10.27;100.00;101594.44;5130338;27;20208;-71
2021/09/21 01:40:42;;;;;;;2.63;2.43;;;;;;;10.20;100.00;101592.00;5130022;27;20516;-72
2021/09/21 01:43:08;;;;;;;3.17;2.70;;;;;;;10.20;100.00;101588.47;5127428;27;20791;-72
2021/09/21 01:45:33;;;;;;;2.90;2.70;;;;;;;10.19;100.00;101589.56;5126030;27;20575;-72
2021/09/21 01:47:59;;;;;;;3.47;2.27;;;;;;;10.18;100.00;101585.19;5132083;27;20192;-72
2021/09/21 02:00:58;;;;;;;3.90;3.33;;;;;;;10.22;100.00;101602.69;5133666;27;20333;-72
2021/09/21 02:03:24;;;;;;;3.60;3.23;;;;;;;10.23;100.00;101601.59;5133071;27;20275;-72
2021/09/21 02:05:49;;;;;;;3.20;2.73;;;;;;;10.26;100.00;101612.75;5112792;27;20231;-72
2021/09/21 02:08:15;;;;;;;3.13;2.87;;;;;;;10.27;100.00;101614.41;5129800;27;20251;-72
2021/09/21 02:10:40;;;;;;;3.37;3.00;;;;;;;10.32;100.00;101602.63;5129791;27;20195;-71
2021/09/21 02:13:06;;;;;;;4.17;2.83;;;;;;;10.32;100.00;101602.63;5123090;27;20303;-72
2021/09/21 02:15:31;;;;;;;4.13;3.20;;;;;;;10.32;100.00;101606.19;5132403;27;20168;-72
2021/09/21 02:17:59;;;;;;;4.53;2.97;;;;;;;10.32;100.00;101608.09;5132608;27;20687;-72
2021/09/21 02:20:26;;;;;;;4.13;3.20;;;;;;;10.33;100.00;101610.56;5130122;27;20569;-72
2021/09/21 02:22:51;;;;;;;6.27;4.40;;;;;;;10.32;100.00;101619.03;5114585;27;20187;-72
2021/09/21 02:25:17;;;;;;;3.50;3.03;;;;;;;10.34;100.00;101617.66;5132778;27;20184;-72
2021/09/21 02:27:42;;;;;;;3.87;3.10;;;;;;;10.32;100.00;101619.84;5132735;27;20256;-71
2021/09/21 02:30:09;;;;;;;4.80;3.40;;;;;;;10.33;100.00;101615.19;5132552;27;20181;-72
2021/09/21 02:32:34;;;;;;;3.33;3.03;;;;;;;10.30;100.00;101616.59;5132768;27;20172;-72
2021/09/21 02:35:00;;;;;;;5.00;2.73;;;;;;;10.32;100.00;101619.03;5132437;27;20702;-72
2021/09/21 02:37:25;;;;;;;3.43;3.13;;;;;;;10.28;100.00;101629.72;5132504;27;20276;-72
2021/09/21 02:39:51;;;;;;;4.33;3.47;;;;;;;10.26;100.00;101612.75;5132424;27;20265;-72
2021/09/21 02:42:16;;;;;;;3.60;3.30;;;;;;;10.20;100.00;101626.69;5132559;27;20176;-71
2021/09/21 02:44:41;;;;;;;3.33;2.97;;;;;;;10.16;100.00;101620.97;5132203;27;20200;-72
2021/09/21 02:47:07;;;;;;;5.47;3.03;;;;;;;10.10;100.00;101622.91;5132389;27;20200;-72
2021/09/21 02:49:32;;;;;;;3.07;2.77;;;;;;;10.05;100.00;101614.75;5113293;27;20196;-72
2021/09/21 02:51:58;;;;;;;4.10;3.30;;;;;;;10.02;100.00;101612.56;5131937;27;20222;-72
2021/09/21 02:54:24;;;;;;;5.40;3.93;;;;;;;10.01;100.00;101613.66;5131890;27;20172;-72
2021/09/21 02:56:49;;;;;;;3.97;3.27;;;;;;;9.99;100.00;101613.13;5132134;27;20187;-71
2021/09/21 02:59:15;;;;;;;3.83;3.37;;;;;;;9.95;100.00;101614.75;5132461;27;20165;-72
2021/09/21 03:01:40;;;;;;;6.50;3.47;;;;;;;9.97;100.00;101615.31;5132081;27;20175;-71
2021/09/21 03:04:12;;;;;;;3.30;3.00;;;;;;;9.98;100.00;101616.13;5131688;27;20200;-72
2021/09/21 03:06:43;;;;;;;3.03;2.67;;;;;;;9.96;100.00;101615.59;5132425;27;20180;-71
2021/09/21 03:09:18;;;;;;;3.27;2.93;;;;;;;9.93;100.00;101622.41;5132090;27;20168;-72
2021/09/21 03:11:47;;;;;;;3.67;2.93;;;;;;;9.91;100.00;101627.34;5131997;27;20558;-72
2021/09/21 03:19:24;;;;;;;2.87;2.13;;;;;;;9.79;100.00;101624.91;5131623;27;20179;-72
2021/09/21 03:21:53;;;;;;;3.50;3.20;;;;;;;9.73;100.00;101623.31;5120533;27;20229;-72
2021/09/21 03:24:18;;;;;;;4.53;4.10;;;;;;;9.69;100.00;101622.22;5131386;27;20614;-72
2021/09/21 03:26:44;;;;;;;3.73;3.43;;;;;;;9.66;100.00;101611.03;5113647;28;20275;-72
2021/09/21 03:29:09;;;;;;;3.97;3.27;;;;;;;9.58;100.00;101620.63;5131618;27;20179;-72
2021/09/21 03:31:34;;;;;;;2.53;2.33;;;;;;;9.53;100.00;101621.41;5131574;27;20181;-72
2021/09/21 03:34:00;;;;;;;3.10;2.80;;;;;;;9.45;100.00;101613.00;5131619;27;20173;-71
2021/09/21 03:36:25;;;;;;;10.10;3.50;;;;;;;9.32;100.00;101619.81;5131666;28;20203;-72
2021/09/21 03:38:50;;;;;;;4.27;3.27;;;;;;;9.28;100.00;101626.91;5130688;28;20184;-71
2021/09/21 03:41:16;;;;;;;3.73;2.80;;;;;;;9.25;100.00;101633.72;5128181;27;20231;-72
2021/09/21 03:43:42;;;;;;;3.40;3.10;;;;;;;9.21;100.00;101635.34;5131236;28;20200;-72
2021/09/21 03:46:07;;;;;;;3.03;2.73;;;;;;;9.11;100.00;101637.25;5126028;28;20181;-71
2021/09/21 03:48:33;;;;;;;2.90;2.60;;;;;;;9.02;100.00;101631.53;5131630;28;20200;-72
2021/09/21 03:50:58;;;;;;;5.27;2.93;;;;;;;8.93;100.00;101641.34;5131548;28;20180;-72
2021/09/21 03:53:24;;;;;;;4.97;2.60;;;;;;;8.81;100.00;101633.41;5131162;28;20172;-72
2021/09/21 03:55:49;;;;;;;3.53;2.90;;;;;;;8.77;100.00;101645.94;5131197;28;20511;-71
2021/09/21 03:58:14;;;;;;;3.40;3.10;;;;;;;8.76;100.00;101655.22;5131340;28;20187;-72
2021/09/21 04:00:40;;;;;;;3.50;3.20;;;;;;;8.74;100.00;101662.03;5131490;28;20680;-72
2021/09/21 04:03:05;;;;;;;3.07;2.83;;;;;;;8.74;100.00;101664.75;5112787;28;20172;-71
2021/09/21 04:05:31;;;;;;;4.67;4.27;;;;;;;8.73;100.00;101669.38;5131435;27;20188;-72
2021/09/21 04:07:56;;;;;;;4.47;2.87;;;;;;;8.72;100.00;101680.56;5135309;27;20176;-71
2021/09/21 04:10:22;;;;;;;3.27;2.97;;;;;;;8.70;100.00;101691.72;5133247;27;20185;-72
2021/09/21 04:12:47;;;;;;;4.27;2.93;;;;;;;8.64;100.00;101681.88;5135190;27;20636;-72
2021/09/21 04:15:13;;;;;;;3.40;3.10;;;;;;;8.48;100.00;101694.63;5120591;27;20177;-72
2021/09/21 04:17:39;;;;;;;3.47;3.17;;;;;;;8.35;100.00;101693.22;5135192;27;20184;-72
2021/09/21 04:20:05;;;;;;;3.43;2.90;;;;;;;8.25;100.00;101689.63;5135338;27;20173;-71
2021/09/21 04:22:30;;;;;;;5.03;4.50;;;;;;;8.16;100.00;101678.41;5134914;27;20175;-71
2021/09/21 04:24:56;;;;;;;3.57;2.90;;;;;;;8.13;100.00;101687.09;5134947;27;20294;-72
2021/09/21 04:27:21;;;;;;;3.73;3.33;;;;;;;8.20;100.00;101695.00;5134942;27;20172;-72
2021/09/21 04:29:49;;;;;;;6.03;3.73;;;;;;;8.21;100.00;101688.47;5134979;27;20201;-72
2021/09/21 04:32:18;;;;;;;4.80;3.07;;;;;;;8.16;100.00;101689.28;5126033;27;20208;-72
2021/09/21 04:34:46;;;;;;;6.20;3.20;;;;;;;8.11;100.00;101708.31;5130993;27;20620;-71
2021/09/21 04:37:11;;;;;;;3.60;3.30;;;;;;;8.10;100.00;101705.84;5134511;27;20548;-72
2021/09/21 04:39:40;;;;;;;5.20;3.23;;;;;;;8.11;100.00;101704.78;5134742;27;20187;-72
2021/09/21 04:42:05;;;;;;;3.77;3.40;;;;;;;8.12;100.00;101717.31;5127204;27;20187;-72
2021/09/21 04:44:31;;;;;;;3.53;3.10;;;;;;;8.19;100.00;101721.41;5134082;27;20208;-72
2021/09/21 04:46:56;;;;;;;3.97;3.57;;;;;;;8.28;100.00;101730.72;5134509;27;20184;-72
2021/09/21 04:49:22;;;;;;;3.80;3.07;;;;;;;8.37;100.00;101720.16;5134532;27;20222;-72
2021/09/21 04:51:47;;;;;;;4.30;3.53;;;;;;;8.41;100.00;101717.75;5134301;27;20252;-72
2021/09/21 04:54:12;;;;;;;4.90;3.73;;;;;;;8.46;100.00;101723.22;5134611;27;20185;-72
2021/09/21 04:56:38;;;;;;;4.47;4.07;;;;;;;8.50;100.00;101713.41;5134287;27;20182;-71
2021/09/21 04:59:03;;;;;;;4.83;4.00;;;;;;;8.59;100.00;101726.28;5134127;27;20164;-72
2021/09/21 05:01:28;;;;;;;4.33;3.93;;;;;;;8.64;100.00;101715.38;5134530;27;20188;-71
2021/09/21 05:03:54;;;;;;;3.37;2.73;;;;;;;8.67;100.00;101702.31;5134121;27;20727;-72
2021/09/21 05:06:19;;;;;;;4.30;3.90;;;;;;;8.72;100.00;101703.16;5134280;27;20161;-72
2021/09/21 05:08:46;;;;;;;4.13;3.73;;;;;;;8.77;100.00;101735.88;5134352;27;20215;-72
2021/09/21 05:11:11;;;;;;;4.07;3.67;;;;;;;8.80;100.00;101740.78;5134206;27;20221;-71
2021/09/21 05:13:37;;;;;;;4.43;4.03;;;;;;;8.81;100.00;101736.97;5134271;27;20184;-72
2021/09/21 05:16:02;;;;;;;3.97;3.60;;;;;;;8.84;100.00;101741.91;5134181;27;20256;-71
2021/09/21 05:18:28;;;;;;;10.83;4.13;;;;;;;8.87;100.00;101746.00;5132751;27;20172;-71
2021/09/21 05:20:53;;;;;;;4.40;4.00;;;;;;;8.88;100.00;101740.28;5134000;27;20203;-71
2021/09/21 05:23:19;;;;;;;3.93;3.63;;;;;;;8.93;100.00;101751.19;5131359;27;20291;-72
2021/09/21 05:25:44;;;;;;;7.00;3.97;;;;;;;8.99;100.00;101745.75;5133443;27;20179;-71
2021/09/21 05:28:09;;;;;;;5.00;4.60;;;;;;;9.00;100.00;101750.94;5133836;27;20172;-72
2021/09/21 05:30:35;;;;;;;3.93;3.63;;;;;;;9.04;100.00;101759.41;5132543;27;20214;-72
2021/09/21 05:33:00;;;;;;;4.03;3.10;;;;;;;9.07;100.00;101761.56;5129352;27;20643;-72
2021/09/21 05:35:25;;;;;;;4.10;3.30;;;;;;;9.11;100.00;101763.50;5130780;27;20233;-72
2021/09/21 05:37:51;;;;;;;5.27;4.77;;;;;;;9.14;100.00;101754.78;5133487;27;20177;-72
2021/09/21 05:40:17;;;;;;;4.63;3.73;;;;;;;9.21;100.00;101765.44;5115306;27;20179;-72
2021/09/21 05:42:46;;;;;;;4.53;4.13;;;;;;;9.26;100.00;101760.00;5130262;27;20249;-72
2021/09/21 05:45:12;;;;;;;4.20;3.67;;;;;;;9.35;100.00;101769.28;5132278;27;20203;-72
2021/09/21 05:47:42;;;;;;;6.40;3.77;;;;;;;9.40;100.00;101768.44;5133094;27;20209;-73
2021/09/21 05:50:09;;;;;;;4.13;3.73;;;;;;;9.42;100.00;101772.56;5119613;27;20179;-71
2021/09/21 05:52:35;;;;;;;4.50;4.10;;;;;;;9.48;100.00;101781.56;5133219;27;20172;-72
2021/09/21 05:55:00;;;;;;;4.17;3.77;;;;;;;9.52;100.00;101779.94;5133165;27;20187;-71
2021/09/21 05:57:26;;;;;;;4.43;4.03;;;;;;;9.54;100.00;101773.09;5133316;27;20179;-74
2021/09/21 05:59:51;;;;;;;4.07;3.67;;;;;;;9.54;100.00;101780.47;5133289;27;20179;-74
2021/09/21 06:02:16;;;;;;;4.03;3.57;;;;;;;9.54;100.00;101781.28;5133205;27;20634;-71
2021/09/21 06:04:42;;;;;;;4.10;3.63;;;;;;;9.60;100.00;101781.31;5132786;27;20764;-71
2021/09/21 06:07:07;;;;;;;4.27;3.87;;;;;;;9.65;100.00;101789.50;5133083;27;20276;-71
2021/09/21 06:09:33;;;;;;;4.43;3.80;;;;;;;9.73;100.00;101797.16;5133052;27;20192;-71
2021/09/21 06:11:58;;;;;;;3.70;3.40;;;;;;;9.79;100.00;101806.97;5132932;27;20176;-71
2021/09/21 06:14:23;;;;;;;6.37;4.40;;;;;;;9.83;100.00;101802.59;5132600;27;20187;-71
2021/09/21 06:16:49;;;;;;;4.20;3.80;;;;;;;9.86;100.00;101804.78;5132820;27;20207;-71
2021/09/21 06:19:15;;;;;;;5.53;3.40;;;;;;;9.86;100.00;101799.34;5132826;27;20172;-78
2021/09/21 06:21:40;;;;;;;3.93;3.63;;;;;;;9.88;100.00;101793.59;5132732;27;20169;-73
2021/09/21 06:24:05;;;;;;;6.83;4.10;;;;;;;9.89;100.00;101806.97;5133020;27;20210;-73
2021/09/21 06:26:32;;;;;;;4.80;3.67;;;;;;;9.95;100.00;101802.31;5132663;27;20263;-72
2021/09/21 06:28:59;;;;;;;4.67;3.80;;;;;;;10.00;100.00;101807.81;5132243;27;20203;-72
2021/09/21 06:31:25;;;;;;;4.63;2.63;;;;;;;9.99;100.00;101800.69;5132628;27;20259;-73
2021/09/21 06:33:50;;;;;;;4.17;3.77;;;;;;;10.00;100.00;101797.69;5132448;27;20179;-74
2021/09/21 06:36:16;;;;;;;3.87;3.57;;;;;;;10.02;100.00;101791.97;5132358;27;20179;-73
2021/09/21 06:38:42;;;;;;;5.20;4.70;;;;;;;10.04;100.00;101787.84;5113837;27;20686;-73
2021/09/21 06:41:07;;;;;;;3.87;3.57;;;;;;;10.05;100.00;101802.31;5132808;27;20165;-73
2021/09/21 06:43:33;;;;;;;3.50;3.20;;;;;;;10.08;100.00;101813.50;5132565;27;20279;-73
2021/09/21 06:45:58;;;;;;;4.53;3.87;;;;;;;10.14;100.00;101814.34;5132827;27;20180;-74
2021/09/21 06:48:25;;;;;;;5.50;3.60;;;;;;;10.20;100.00;101817.88;5137927;27;20168;-74
2021/09/21 06:50:51;;;;;;;5.63;3.83;;;;;;;10.23;100.00;101829.09;5137619;27;20237;-73
2021/09/21 06:53:17;;;;;;;3.90;3.50;;;;;;;10.27;100.00;101829.34;5133316;27;20691;-73
2021/09/21 06:55:42;;;;;;;4.83;3.90;;;;;;;10.27;100.00;101840.28;5132960;27;20263;-71
2021/09/21 06:58:08;;;;;;;4.83;4.33;;;;;;;10.37;100.00;101840.28;5132271;27;20183;-71
2021/09/21 07:00:37;;;;;;;2.97;2.67;;;;;;;10.41;100.00;101827.69;5132311;27;20176;-72
2021/09/21 07:03:03;;;;;;;4.10;3.70;;;;;;;10.40;100.00;101832.34;5132149;27;20237;-72
2021/09/21 07:05:28;;;;;;;3.60;3.30;;;;;;;10.39;100.00;101830.69;5127677;27;20471;-72
2021/09/21 07:07:54;;;;;;;3.63;2.97;;;;;;;10.45;100.00;101825.25;5130215;27;20301;-71
2021/09/21 07:10:20;;;;;;;6.63;4.23;;;;;;;10.46;100.00;101830.44;5127916;27;20215;-71
2021/09/21 07:12:47;;;;;;;4.77;4.37;;;;;;;10.51;100.00;101824.13;5116185;27;20567;-71
2021/09/21 07:15:13;;;;;;;5.03;4.27;;;;;;;10.53;100.00;101827.41;5129673;27;20232;-71
2021/09/21 07:17:38;;;;;;;4.83;4.43;;;;;;;10.57;100.00;101828.50;5129991;27;20173;-71
2021/09/21 07:20:05;;;;;;;4.90;4.40;;;;;;;10.63;100.00;101825.47;5131461;27;20255;-71
2021/09/21 07:22:32;;;;;;;4.97;3.73;;;;;;;10.71;100.00;101832.28;5131759;27;20169;-72
2021/09/21 07:24:58;;;;;;;4.17;3.60;;;;;;;10.73;100.00;101836.38;5131730;27;20496;-72
2021/09/21 07:27:23;;;;;;;4.00;3.50;;;;;;;10.83;100.00;101838.25;5131838;27;20252;-71
2021/09/21 07:29:49;;;;;;;4.77;4.17;;;;;;;10.89;100.00;101850.00;5131450;27;20325;-72
2021/09/21 07:32:14;;;;;;;5.83;3.67;;;;;;;10.86;100.00;101839.63;5131571;27;20594;-72
2021/09/21 07:34:40;;;;;;;4.23;3.83;;;;;;;10.87;100.00;101844.81;5131640;27;20171;-72
2021/09/21 07:37:05;;;;;;;4.07;3.70;;;;;;;10.94;100.00;101849.97;5131989;28;20199;-72
2021/09/21 07:39:31;;;;;;;4.27;3.73;;;;;;;10.99;100.00;101848.06;5131719;28;20254;-72
2021/09/21 07:41:56;;;;;;;4.67;3.97;;;;;;;10.99;100.00;101853.53;5130930;27;20168;-72
2021/09/21 07:44:22;;;;;;;5.43;4.47;;;;;;;10.93;100.00;101843.69;5113010;28;20214;-72
2021/09/21 07:46:48;;;;;;;4.10;3.47;;;;;;;10.97;100.00;101863.91;5113146;28;20168;-72
2021/09/21 07:49:14;;;;;;;6.00;4.43;;;;;;;11.00;100.00;101859.81;5131387;28;20670;-73
2021/09/21 07:51:39;;;;;;;6.07;4.13;;;;;;;11.10;100.00;101858.94;5113077;28;20204;-73
2021/09/21 07:54:07;;;;;;;4.90;4.43;;;;;;;11.17;100.00;101867.66;5131388;28;20171;-72
2021/09/21 07:56:32;;;;;;;4.70;4.20;;;;;;;11.24;100.00;101871.72;5131587;28;20168;-72
2021/09/21 07:58:58;;;;;;;5.73;4.03;;;;;;;11.28;100.00;101872.81;5131459;28;20176;-72
2021/09/21 08:01:24;;;;;;;4.70;4.30;;;;;;;11.36;100.00;101874.13;5112924;28;20165;-72
2021/09/21 08:03:49;;;;;;;5.43;4.83;;;;;;;11.42;100.00;101863.97;5130854;28;20284;-72
2021/09/21 08:06:14;;;;;;;5.00;4.43;;;;;;;11.48;100.00;101863.69;5131218;28;20188;-72
2021/09/21 08:08:40;;;;;;;3.80;3.50;;;;;;;11.52;100.00;101864.72;5131300;28;20176;-72
2021/09/21 08:11:08;;;;;;;4.13;3.73;;;;;;;11.53;98.90;101862.81;5131275;28;20209;-72
2021/09/21 08:13:34;;;;;;;4.60;3.87;;;;;;;11.61;100.00;101857.56;5130932;28;20172;-72
2021/09/21 08:16:00;;;;;;;5.03;4.13;;;;;;;11.66;100.00;101859.44;5130927;28;20317;-72
2021/09/21 08:18:25;;;;;;;3.57;3.00;;;;;;;11.69;99.13;101861.63;5130438;28;20691;-72
2021/09/21 08:20:51;;;;;;;5.10;4.60;;;;;;;11.77;99.78;101868.44;5130994;28;20206;-72
2021/09/21 08:23:17;;;;;;;4.13;3.67;;;;;;;11.85;99.14;101863.16;5130810;28;20224;-72
2021/09/21 08:25:42;;;;;;;4.20;3.60;;;;;;;11.85;96.84;101860.44;5130677;28;20169;-72
2021/09/21 08:28:07;;;;;;;5.37;3.90;;;;;;;11.88;97.75;101865.38;5130907;28;20173;-72
2021/09/21 08:30:33;;;;;;;4.10;3.70;;;;;;;11.91;97.09;101858.50;5130807;28;20211;-72
2021/09/21 08:32:59;;;;;;;4.37;3.90;;;;;;;11.96;96.00;101861.19;5130830;28;20172;-72
2021/09/21 08:35:26;;;;;;;5.07;4.57;;;;;;;12.05;96.25;101869.63;5130521;28;20624;-72
2021/09/21 08:37:51;;;;;;;4.90;3.73;;;;;;;12.17;95.75;101873.63;5130723;28;20265;-72
2021/09/21 08:40:17;;;;;;;4.70;4.23;;;;;;;12.25;94.88;101871.34;5130784;28;20248;-71
2021/09/21 08:42:42;;;;;;;5.10;4.27;;;;;;;12.27;94.45;101877.38;5112240;28;20180;-72
2021/09/21 08:45:09;;;;;;;4.03;3.70;;;;;;;12.30;94.31;101877.63;5130906;28;20189;-72
2021/09/21 08:47:35;;;;;;;8.33;3.73;;;;;;;12.36;92.92;101883.88;5130702;28;20173;-72
2021/09/21 08:50:03;;;;;;;6.07;4.30;;;;;;;12.46;91.78;101875.56;5130783;28;20172;-72
2021/09/21 08:52:29;;;;;;;4.23;3.83;;;;;;;12.51;89.92;101876.31;5132349;27;20676;-72
2021/09/21 08:54:54;;;;;;;4.10;3.70;;;;;;;12.62;89.71;101874.31;5134491;27;20176;-72
2021/09/21 08:57:20;;;;;;;4.33;3.93;;;;;;;12.69;89.11;101872.03;5134234;27;20182;-72
2021/09/21 08:59:51;;;;;;;4.17;3.67;;;;;;;12.69;86.15;101885.72;5115708;27;20529;-72
2021/09/21 09:02:17;;;;;;;4.03;3.73;;;;;;;12.72;85.88;101882.41;5134226;27;20169;-72
2021/09/21 09:04:54;;;;;;;4.37;4.07;;;;;;;12.85;88.86;101891.06;5133853;27;20208;-72
2021/09/21 09:07:19;;;;;;;5.93;4.50;;;;;;;12.95;85.83;101878.06;5134431;27;20628;-72
2021/09/21 09:09:45;;;;;;;4.77;4.10;;;;;;;13.03;86.87;101873.84;5134139;27;20198;-72
2021/09/21 09:12:10;;;;;;;7.30;4.13;;;;;;;13.20;89.31;101882.44;5133970;27;20172;-72
2021/09/21 09:14:38;;;;;;;4.63;4.00;;;;;;;13.23;86.04;101883.78;5133644;27;20163;-72
2021/09/21 09:17:11;;;;;;;5.30;4.00;;;;;;;13.23;84.79;101884.59;5133905;27;20175;-72
2021/09/21 09:19:43;;;;;;;4.23;3.83;;;;;;;13.27;85.23;101879.34;5133433;27;20520;-72
2021/09/21 09:22:20;;;;;;;4.07;3.47;;;;;;;13.17;82.63;101880.28;5133720;27;20196;-72
2021/09/21 09:24:53;;;;;;;3.73;3.33;;;;;;;13.18;83.13;101876.44;5114951;27;20196;-72
2021/09/21 09:27:21;;;;;;;4.23;3.57;;;;;;;13.13;85.12;101864.66;5133753;27;20168;-72
2021/09/21 09:30:14;;;;;;;3.93;3.40;;;;;;;13.01;83.49;101860.41;5133694;27;20538;-72
2021/09/21 09:32:57;;;;;;;3.00;2.70;;;;;;;13.08;83.54;101863.63;5129741;27;20188;-71
2021/09/21 09:35:34;;;;;;;6.77;2.87;;;;;;;13.20;83.83;101868.72;5133275;27;20174;-72
2021/09/21 09:38:02;;;;;;;3.80;3.50;;;;;;;13.27;83.83;101871.09;5133596;27;20352;-72
2021/09/21 09:40:28;;;;;;;3.10;2.83;;;;;;;13.28;83.69;101870.00;5133551;27;20196;-72
2021/09/21 09:42:54;;;;;;;4.47;3.20;;;;;;;13.24;82.90;101866.22;5133830;27;20176;-72
2021/09/21 09:45:35;;;;;;;3.60;3.30;;;;;;;13.27;82.79;101860.94;5133564;27;20208;-72
2021/09/21 09:48:00;;;;;;;3.70;3.40;;;;;;;13.33;82.82;101889.16;5133519;27;20247;-72
2021/09/21 09:50:29;;;;;;;4.23;3.73;;;;;;;13.51;84.03;101657.72;5133224;27;20169;-72
2021/09/21 09:53:11;;;;;;;3.90;3.10;;;;;;;13.59;82.48;101809.97;5133229;27;20169;-72
2021/09/21 09:55:37;;;;;;;3.20;2.73;;;;;;;13.67;82.42;101845.81;5132822;27;20174;-72
2021/09/21 09:58:05;;;;;;;3.73;3.37;;;;;;;13.78;83.44;101837.44;5133212;27;20259;-72
2021/09/21 10:00:32;;;;;;;5.10;3.30;;;;;;;13.77;81.18;101833.88;5133162;27;20213;-72
2021/09/21 10:02:58;;;;;;;3.40;3.10;;;;;;;13.83;80.79;101840.09;5132907;27;20176;-72
2021/09/21 10:05:23;;;;;;;3.37;3.03;;;;;;;13.88;79.86;101843.56;5131971;27;20732;-72
2021/09/21 10:07:49;;;;;;;3.50;2.63;;;;;;;13.98;80.26;101839.84;5132928;27;20176;-72
2021/09/21 10:10:15;;;;;;;4.23;3.57;;;;;;;13.99;80.14;101842.28;5133167;27;20662;-71
2021/09/21 10:12:41;;;;;;;3.23;2.80;;;;;;;14.13;81.45;101852.53;5132956;27;20218;-72
2021/09/21 10:15:10;;;;;;;3.43;3.07;;;;;;;14.20;78.32;101845.53;5114136;27;20197;-71
2021/09/21 10:17:46;;;;;;;3.60;3.30;;;;;;;14.23;76.40;101853.16;5132614;27;20168;-72
2021/09/21 10:20:13;;;;;;;5.20;2.83;;;;;;;14.28;77.31;101847.56;5132703;27;20574;-72
2021/09/21 10:22:39;;;;;;;4.43;3.10;;;;;;;14.40;78.06;101851.78;5132659;27;20169;-72
2021/09/21 10:25:09;;;;;;;2.57;2.37;;;;;;;14.50;77.79;101857.94;5132229;27;20200;-72
2021/09/21 10:27:39;;;;;;;3.60;3.13;;;;;;;14.54;75.94;101858.16;5132564;27;20263;-72
2021/09/21 10:30:08;;;;;;;3.00;2.70;;;;;;;14.54;74.01;101849.91;5132473;27;20160;-72
2021/09/21 10:32:45;;;;;;;2.50;2.30;;;;;;;14.53;77.42;101851.03;5132359;27;20719;-72
2021/09/21 10:35:15;;;;;;;2.90;2.53;;;;;;;14.46;76.26;101856.09;5129841;27;20191;-72
2021/09/21 10:37:41;;;;;;;2.13;1.93;;;;;;;14.45;76.66;101859.97;5118145;27;20233;-72
2021/09/21 10:40:09;;;;;;;4.67;3.03;;;;;;;14.47;76.32;101866.00;5127368;27;20173;-73
2021/09/21 10:42:36;;;;;;;2.13;1.93;;;;;;;14.47;75.81;101861.31;5124270;27;20196;-72
2021/09/21 10:45:04;;;;;;;2.70;2.50;;;;;;;14.50;73.17;101865.38;5131535;27;20193;-72
2021/09/21 10:47:37;;;;;;;3.27;2.60;;;;;;;14.56;73.47;101861.41;5131772;27;20562;-72
2021/09/21 10:50:14;;;;;;;2.23;2.10;;;;;;;14.63;73.66;101858.28;5113827;27;20255;-72
2021/09/21 10:52:41;;;;;;;3.87;2.23;;;;;;;14.68;71.03;101858.16;5132386;27;20504;-73
2021/09/21 10:55:12;;;;;;;2.53;2.30;;;;;;;14.69;70.90;101865.31;5129575;27;20177;-73
2021/09/21 10:57:44;;;;;;;2.43;2.23;;;;;;;14.71;71.60;101869.38;5130022;27;20184;-73
2021/09/21 11:00:20;;;;;;;2.67;1.97;;;;;;;14.71;71.47;101858.38;5131891;27;20172;-73
2021/09/21 11:02:49;;;;;;;2.67;1.70;;;;;;;14.75;71.21;101862.13;5122778;27;20712;-73
2021/09/21 11:05:18;;;;;;;3.00;1.90;;;;;;;14.82;71.24;101875.50;5123837;27;20664;-73
2021/09/21 11:07:59;;;;;;;1.97;1.77;;;;;;;14.91;71.30;101867.38;5124684;27;20188;-72
2021/09/21 11:10:31;;;;;;;2.53;2.33;;;;;;;14.95;71.05;101873.88;5130402;27;20176;-72
2021/09/21 11:12:57;;;;;;;1.77;1.67;;;;;;;14.95;70.56;101868.38;5121813;27;20187;-73
2021/09/21 11:15:26;;;;;;;2.30;2.10;;;;;;;14.96;72.37;101870.00;5130180;27;20183;-73
2021/09/21 11:18:09;;;;;;;2.07;1.87;;;;;;;15.02;71.12;101866.84;5131196;27;20184;-73
2021/09/21 11:21:01;;;;;;;3.27;2.07;;;;;;;15.02;71.07;101864.06;5131758;27;20433;-73
2021/09/21 11:23:35;;;;;;;2.10;1.87;;;;;;;14.94;69.51;101858.50;5129417;27;20232;-73
2021/09/21 11:26:04;;;;;;;1.60;1.50;;;;;;;14.97;71.05;101858.69;5131265;27;20230;-73
2021/09/21 11:28:31;;;;;;;2.37;2.13;;;;;;;15.06;71.78;101867.06;5130749;27;20619;-73
2021/09/21 11:30:58;;;;;;;1.60;1.50;;;;;;;15.11;72.48;101855.94;5129923;27;20516;-73
2021/09/21 11:33:30;;;;;;;1.53;1.43;;;;;;;15.08;70.79;101853.78;5130053;27;20221;-72
2021/09/21 11:35:58;;;;;;;1.40;1.10;;;;;;;15.02;69.76;101860.50;5128247;27;20187;-72